createdAt,value
2019-02-19T00:01:36.629Z,6.95
2019-02-19T00:04:04.466Z,6.87
2019-02-19T00:06:32.382Z,7.12
2019-02-19T00:09:00.235Z,6.62
2019-02-19T00:11:28.089Z,6.62
2019-02-19T00:13:55.957Z,6.15
2019-02-19T00:16:23.807Z,5.67
2019-02-19T00:18:51.681Z,6.60
2019-02-19T00:21:19.540Z,6.17
2019-02-19T00:23:47.580Z,6.85
2019-02-19T00:26:15.446Z,6.12
2019-02-19T00:28:43.302Z,6.62
2019-02-19T00:31:11.191Z,6.60
2019-02-19T00:33:39.070Z,6.50
2019-02-19T00:36:06.919Z,6.12
2019-02-19T00:38:34.779Z,6.35
2019-02-19T00:41:02.644Z,6.40
2019-02-19T00:43:30.508Z,6.20
2019-02-19T00:45:58.443Z,5.97
2019-02-19T00:48:26.310Z,6.20
2019-02-19T00:50:54.203Z,5.87
2019-02-19T00:53:22.081Z,6.35
2019-02-19T00:55:49.977Z,6.50
2019-02-19T00:58:17.820Z,6.20
2019-02-19T01:00:45.701Z,6.85
2019-02-19T01:03:13.538Z,6.42
2019-02-19T01:05:41.376Z,6.47
2019-02-19T01:08:09.271Z,6.45
2019-02-19T01:10:37.127Z,6.00
2019-02-19T01:13:05.022Z,6.37
2019-02-19T01:15:32.886Z,6.50
2019-02-19T01:18:00.752Z,6.60
2019-02-19T01:20:28.616Z,6.20
2019-02-19T01:22:56.496Z,6.72
2019-02-19T01:25:24.380Z,6.45
2019-02-19T01:27:52.250Z,6.67
2019-02-19T01:30:20.174Z,6.80
2019-02-19T01:32:48.037Z,6.65
2019-02-19T01:35:15.897Z,6.05
2019-02-19T01:37:43.795Z,6.42
2019-02-19T01:40:11.656Z,5.87
2019-02-19T01:42:39.525Z,6.30
2019-02-19T01:45:07.398Z,6.33
2019-02-19T01:47:35.268Z,6.08
2019-02-19T01:50:03.132Z,6.12
2019-02-19T01:52:49.998Z,5.80
2019-02-19T01:55:17.856Z,6.33
2019-02-19T01:57:45.737Z,6.28
2019-02-19T02:00:13.982Z,6.30
2019-02-19T02:02:41.855Z,6.28
2019-02-19T02:05:09.718Z,6.83
2019-02-19T02:07:37.605Z,6.50
2019-02-19T02:10:05.474Z,6.47
2019-02-19T02:12:33.314Z,6.03
2019-02-19T02:15:01.201Z,6.22
2019-02-19T02:17:29.056Z,6.72
2019-02-19T02:19:56.932Z,6.03
2019-02-19T02:22:26.433Z,6.58
2019-02-19T02:24:54.307Z,6.78
2019-02-19T02:27:22.157Z,6.05
2019-02-19T02:29:50.037Z,6.78
2019-02-19T02:32:17.927Z,6.20
2019-02-19T02:34:45.771Z,6.30
2019-02-19T02:37:13.624Z,6.50
2019-02-19T02:39:41.502Z,5.60
2019-02-19T02:42:09.361Z,5.78
2019-02-19T02:44:37.230Z,6.40
2019-02-19T02:47:05.219Z,5.72
2019-02-19T02:49:33.101Z,6.35
2019-02-19T02:52:00.973Z,6.17
2019-02-19T02:54:28.844Z,5.65
2019-02-19T02:56:56.758Z,6.10
2019-02-19T02:59:24.631Z,5.72
2019-02-19T03:01:52.500Z,6.03
2019-02-19T03:04:20.372Z,6.58
2019-02-19T03:06:56.686Z,6.08
2019-02-19T03:09:24.583Z,5.75
2019-02-19T03:12:11.452Z,5.67
2019-02-19T03:14:39.330Z,6.10
2019-02-19T03:17:07.329Z,6.25
2019-02-19T03:19:35.251Z,6.25
2019-02-19T03:22:03.115Z,6.25
2019-02-19T03:24:31.072Z,5.90
2019-02-19T03:26:58.936Z,5.90
2019-02-19T03:29:26.803Z,6.72
2019-02-19T03:31:54.651Z,6.30
2019-02-19T03:34:22.529Z,5.83
2019-02-19T03:36:50.400Z,6.45
2019-02-19T03:39:18.294Z,5.70
2019-02-19T03:41:46.167Z,6.20
2019-02-19T03:44:14.064Z,6.12
2019-02-19T03:46:41.997Z,5.95
2019-02-19T03:49:09.874Z,6.42
2019-02-19T03:51:37.725Z,6.08
2019-02-19T03:54:05.560Z,5.78
2019-02-19T03:56:33.451Z,6.40
2019-02-19T03:59:01.331Z,6.30
2019-02-19T04:01:29.228Z,5.70
2019-02-19T04:03:57.079Z,5.92
2019-02-19T04:06:24.966Z,6.40
2019-02-19T04:08:52.837Z,6.45
2019-02-19T04:11:20.824Z,6.58
2019-02-19T04:13:48.682Z,6.53
2019-02-19T04:16:21.371Z,6.28
2019-02-19T04:18:46.228Z,6.55
2019-02-19T04:21:14.094Z,6.15
2019-02-19T04:23:42.003Z,6.80
2019-02-19T04:26:09.891Z,6.45
2019-02-19T04:28:37.773Z,6.72
2019-02-19T04:31:05.664Z,5.95
2019-02-19T04:33:33.522Z,6.70
2019-02-19T04:36:01.388Z,6.62
2019-02-19T04:38:29.226Z,7.20
2019-02-19T04:40:57.097Z,6.50
2019-02-19T04:43:24.988Z,6.75
2019-02-19T04:45:52.847Z,6.37
2019-02-19T04:48:20.729Z,6.30
2019-02-19T04:50:48.586Z,6.37
2019-02-19T04:53:16.415Z,6.42
2019-02-19T04:55:44.310Z,6.60
2019-02-19T04:58:12.177Z,6.33
2019-02-19T05:00:40.111Z,6.60
2019-02-19T05:03:07.921Z,6.00
2019-02-19T05:05:35.800Z,6.78
2019-02-19T05:08:03.676Z,6.25
2019-02-19T05:10:31.582Z,6.37
2019-02-19T05:12:59.486Z,6.33
2019-02-19T05:15:27.363Z,6.05
2019-02-19T05:17:55.422Z,6.72
2019-02-19T05:20:23.295Z,6.72
2019-02-19T05:22:51.157Z,6.72
2019-02-19T05:25:19.073Z,7.40
2019-02-19T05:27:46.933Z,8.55
2019-02-19T05:30:14.785Z,8.58
2019-02-19T05:32:42.617Z,8.65
2019-02-19T05:35:10.514Z,9.20
2019-02-19T05:37:38.412Z,8.15
2019-02-19T05:40:06.308Z,7.80
2019-02-19T05:42:34.185Z,7.35
2019-02-19T05:45:02.134Z,6.85
2019-02-19T05:47:29.954Z,7.42
2019-02-19T05:49:57.823Z,6.75
2019-02-19T05:52:25.634Z,8.60
2019-02-19T05:54:53.491Z,8.28
2019-02-19T05:57:21.382Z,8.35
2019-02-19T05:59:49.217Z,9.25
2019-02-19T06:02:17.080Z,9.13
2019-02-19T06:04:44.934Z,9.23
2019-02-19T06:07:12.821Z,8.65
2019-02-19T06:09:40.693Z,9.23
2019-02-19T06:12:08.583Z,8.95
2019-02-19T06:14:36.439Z,8.73
2019-02-19T06:17:04.323Z,7.62
2019-02-19T06:19:32.191Z,8.58
2019-02-19T06:22:00.064Z,8.30
2019-02-19T06:24:27.922Z,8.68
2019-02-19T06:26:55.795Z,8.00
2019-02-19T06:29:23.650Z,8.18
2019-02-19T06:31:51.516Z,8.18
2019-02-19T06:34:19.368Z,8.08
2019-02-19T06:36:47.202Z,8.00
2019-02-19T06:39:15.061Z,7.97
2019-02-19T06:41:42.918Z,7.95
2019-02-19T06:44:10.786Z,8.50
2019-02-19T06:46:38.611Z,8.20
2019-02-19T06:49:06.481Z,9.60
2019-02-19T06:51:34.350Z,8.23
2019-02-19T06:54:02.237Z,10.53
2019-02-19T06:56:30.110Z,9.95
2019-02-19T06:58:57.962Z,9.50
2019-02-19T07:02:03.496Z,8.60
2019-02-19T07:04:37.746Z,10.35
2019-02-19T07:07:05.320Z,10.78
2019-02-19T07:09:33.162Z,10.30
2019-02-19T07:12:01.014Z,9.88
2019-02-19T07:14:28.878Z,11.00
2019-02-19T07:16:56.805Z,10.95
2019-02-19T07:19:24.651Z,11.97
2019-02-19T07:21:52.505Z,9.58
2019-02-19T07:24:20.384Z,12.75
2019-02-19T07:26:48.270Z,11.20
2019-02-19T07:29:16.138Z,12.40
2019-02-19T07:31:44.014Z,15.23
2019-02-19T07:34:11.864Z,13.20
2019-02-19T07:36:39.734Z,11.25
2019-02-19T07:39:07.590Z,13.22
2019-02-19T07:41:35.458Z,14.07
2019-02-19T07:44:03.345Z,11.55
2019-02-19T07:46:31.216Z,17.75
2019-02-19T07:48:59.060Z,15.15
2019-02-19T07:51:26.919Z,13.05
2019-02-19T07:53:54.800Z,13.18
2019-02-19T07:56:22.689Z,16.27
2019-02-19T07:58:50.592Z,14.28
2019-02-19T08:01:18.462Z,15.32
2019-02-19T08:03:46.330Z,14.18
2019-02-19T08:06:14.206Z,14.47
2019-02-19T08:08:42.075Z,12.20
2019-02-19T08:11:09.967Z,10.95
2019-02-19T08:13:37.835Z,11.73
2019-02-19T08:16:05.731Z,11.78
2019-02-19T08:18:33.605Z,13.75
2019-02-19T08:21:01.535Z,16.07
2019-02-19T08:23:29.952Z,18.73
2019-02-19T08:25:58.056Z,18.70
2019-02-19T08:28:25.963Z,12.47
2019-02-19T08:30:53.872Z,11.35
2019-02-19T08:33:21.840Z,10.72
2019-02-19T08:35:49.843Z,11.68
2019-02-19T08:38:17.854Z,12.00
2019-02-19T08:40:45.811Z,11.10
2019-02-19T08:43:13.687Z,11.95
2019-02-19T08:45:41.595Z,12.68
2019-02-19T08:48:09.455Z,11.10
2019-02-19T08:50:37.303Z,11.60
2019-02-19T08:53:05.173Z,12.90
2019-02-19T08:55:34.835Z,10.75
2019-02-19T08:58:02.647Z,10.68
2019-02-19T09:00:30.498Z,10.90
2019-02-19T09:02:58.430Z,15.58
2019-02-19T09:05:26.334Z,17.57
2019-02-19T09:07:54.233Z,15.43
2019-02-19T09:10:22.135Z,12.55
2019-02-19T09:12:50.010Z,11.73
2019-02-19T09:15:17.859Z,13.72
2019-02-19T09:17:51.570Z,17.10
2019-02-19T09:20:15.343Z,16.82
2019-02-19T09:22:43.242Z,17.45
2019-02-19T09:25:11.100Z,18.73
2019-02-19T09:27:38.939Z,15.10
2019-02-19T09:30:14.000Z,14.95
2019-02-19T09:32:41.308Z,16.02
2019-02-19T09:35:09.170Z,15.38
2019-02-19T09:37:37.213Z,22.05
2019-02-19T09:40:05.280Z,17.52
2019-02-19T09:42:33.293Z,17.85
2019-02-19T09:45:01.137Z,16.52
2019-02-19T09:47:29.033Z,15.72
2019-02-19T09:49:56.990Z,15.60
2019-02-19T09:52:24.858Z,16.87
2019-02-19T09:54:52.733Z,18.48
2019-02-19T09:57:20.765Z,14.75
2019-02-19T09:59:48.626Z,16.42
2019-02-19T10:02:16.532Z,15.23
2019-02-19T10:04:44.487Z,17.00
2019-02-19T10:07:12.367Z,15.35
2019-02-19T10:09:40.275Z,15.40
2019-02-19T10:12:08.143Z,14.47
2019-02-19T10:14:35.988Z,14.95
2019-02-19T10:17:03.873Z,16.00
2019-02-19T10:19:31.742Z,15.40
2019-02-19T10:21:59.640Z,16.27
2019-02-19T10:24:27.509Z,14.75
2019-02-19T10:26:55.453Z,14.87
2019-02-19T10:29:23.300Z,15.48
2019-02-19T10:31:51.315Z,15.13
2019-02-19T10:34:19.198Z,15.25
2019-02-19T10:36:47.038Z,13.43
2019-02-19T10:39:14.917Z,15.60
2019-02-19T10:41:42.784Z,13.88
2019-02-19T10:44:10.681Z,16.90
2019-02-19T10:46:38.552Z,14.80
2019-02-19T10:49:06.552Z,15.38
2019-02-19T10:51:34.430Z,14.98
2019-02-19T10:54:02.270Z,15.30
2019-02-19T10:56:30.209Z,13.90
2019-02-19T10:58:58.048Z,14.83
2019-02-19T11:01:25.928Z,15.23
2019-02-19T11:03:53.814Z,15.15
2019-02-19T11:06:21.693Z,14.87
2019-02-19T11:08:49.583Z,14.90
2019-02-19T11:11:17.457Z,14.83
2019-02-19T11:13:45.453Z,9.50
2019-02-19T11:16:13.491Z,10.70
2019-02-19T11:18:41.468Z,5.37
2019-02-19T11:21:09.530Z,7.28
2019-02-19T11:23:37.490Z,4.30
2019-02-19T11:26:05.497Z,4.90
2019-02-19T11:28:33.482Z,4.58
2019-02-19T11:31:01.433Z,3.83
2019-02-19T11:33:29.294Z,2.67
2019-02-19T11:35:57.160Z,2.08
2019-02-19T11:38:25.052Z,2.17
2019-02-19T11:40:52.915Z,1.95
2019-02-19T11:43:20.817Z,2.10
2019-02-19T11:45:48.691Z,1.80
2019-02-19T11:48:16.565Z,1.82
2019-02-19T11:50:44.406Z,1.90
2019-02-19T11:53:12.390Z,1.87
2019-02-19T11:55:40.221Z,2.05
2019-02-19T11:58:08.348Z,1.98
2019-02-19T12:00:38.794Z,1.72
2019-02-19T12:03:06.845Z,1.95
2019-02-19T12:05:34.862Z,2.10
2019-02-19T12:08:02.880Z,1.80
2019-02-19T12:10:30.748Z,1.87
2019-02-19T12:12:58.870Z,2.37
2019-02-19T12:15:34.726Z,3.47
2019-02-19T12:17:56.412Z,3.70
2019-02-19T12:20:24.339Z,3.10
2019-02-19T12:22:52.271Z,3.45
2019-02-19T12:25:20.245Z,3.20
2019-02-19T12:27:48.122Z,3.70
2019-02-19T12:30:16.083Z,4.55
2019-02-19T12:32:43.950Z,2.55
2019-02-19T12:35:11.843Z,2.65
2019-02-19T12:37:39.719Z,2.40
2019-02-19T12:40:07.691Z,2.30
2019-02-19T12:42:35.547Z,1.80
2019-02-19T12:45:03.425Z,1.60
2019-02-19T12:47:31.293Z,2.22
2019-02-19T12:49:59.168Z,2.12
2019-02-19T12:52:27.027Z,1.82
2019-02-19T12:54:54.894Z,2.10
2019-02-19T12:57:22.871Z,1.98
2019-02-19T12:59:56.379Z,1.77
2019-02-19T13:02:20.486Z,1.57
2019-02-19T13:04:48.371Z,1.42
2019-02-19T13:07:16.240Z,1.70
2019-02-19T13:09:44.112Z,1.55
2019-02-19T13:12:11.957Z,1.27
2019-02-19T13:14:39.828Z,1.47
2019-02-19T13:17:07.727Z,2.92
2019-02-19T13:19:35.650Z,1.92
2019-02-19T13:22:03.539Z,2.55
2019-02-19T13:24:31.385Z,1.72
2019-02-19T13:26:59.241Z,2.15
2019-02-19T13:29:27.096Z,1.80
2019-02-19T13:31:55.104Z,1.98
2019-02-19T13:34:22.952Z,1.65
2019-02-19T13:36:50.796Z,1.55
2019-02-19T13:39:18.818Z,1.70
2019-02-19T13:41:46.639Z,1.80
2019-02-19T13:44:14.483Z,2.30
2019-02-19T13:46:43.765Z,2.05
2019-02-19T13:49:12.479Z,2.20
2019-02-19T13:51:40.548Z,2.00
2019-02-19T13:54:31.705Z,2.10
2019-02-19T13:56:59.559Z,2.25
2019-02-19T13:59:27.404Z,2.87
2019-02-19T14:01:55.380Z,2.30
2019-02-19T14:04:23.334Z,2.17
2019-02-19T14:06:51.212Z,2.22
2019-02-19T14:09:19.052Z,2.83
2019-02-19T14:11:46.929Z,2.33
2019-02-19T14:14:22.413Z,2.65
2019-02-19T14:16:56.931Z,2.50
2019-02-19T14:19:38.667Z,2.23
2019-02-19T14:22:20.628Z,2.37
2019-02-19T14:25:19.974Z,2.55
2019-02-19T14:28:15.965Z,2.80
2019-02-19T14:31:02.311Z,2.60
2019-02-19T14:33:48.987Z,2.60
2019-02-19T14:36:45.019Z,2.40
2019-02-19T14:39:47.378Z,2.60
2019-02-19T14:42:32.825Z,2.70
2019-02-19T14:45:31.706Z,2.95
2019-02-19T14:48:17.220Z,2.60
2019-02-19T14:51:02.772Z,2.60
2019-02-19T14:56:44.623Z,3.20
2019-02-19T14:59:31.540Z,2.67
2019-02-19T15:02:17.220Z,3.15
2019-02-19T15:05:12.967Z,2.70
2019-02-19T15:07:58.594Z,3.03
2019-02-19T15:13:23.339Z,3.25
2019-02-19T15:16:10.297Z,3.30
2019-02-19T15:19:03.047Z,3.27
2019-02-19T15:21:49.422Z,3.52
2019-02-19T15:24:33.721Z,2.95
2019-02-19T15:27:20.624Z,3.37
2019-02-19T15:30:04.414Z,3.15
2019-02-19T15:32:54.200Z,3.58
2019-02-19T15:35:46.170Z,3.60
2019-02-19T15:38:33.172Z,3.40
2019-02-19T15:41:13.140Z,3.20
2019-02-19T15:44:02.313Z,3.80
2019-02-19T15:46:52.220Z,3.70
2019-02-19T15:49:37.846Z,3.33
2019-02-19T15:52:30.620Z,3.42
2019-02-19T15:55:26.702Z,3.47
2019-02-19T15:58:13.327Z,3.98
2019-02-19T16:00:43.163Z,4.25
2019-02-19T16:03:42.183Z,3.70
2019-02-19T16:06:27.926Z,4.30
2019-02-19T16:09:17.045Z,4.25
2019-02-19T16:12:22.496Z,4.75
2019-02-19T16:14:57.298Z,4.35
2019-02-19T16:17:49.958Z,4.50
2019-02-19T16:20:28.783Z,4.60
2019-02-19T16:23:18.734Z,3.90
2019-02-19T16:25:56.627Z,3.90
2019-02-19T16:28:33.442Z,4.72
2019-02-19T16:31:17.354Z,4.40
2019-02-19T16:34:10.332Z,3.90
2019-02-19T16:37:00.572Z,3.77
2019-02-19T16:39:56.971Z,3.62
2019-02-19T16:42:39.441Z,3.27
2019-02-19T16:45:25.897Z,3.50
2019-02-19T16:48:03.387Z,3.40
2019-02-19T16:50:37.718Z,3.33
2019-02-19T16:53:24.663Z,3.40
2019-02-19T16:56:11.553Z,3.27
2019-02-19T16:59:07.383Z,3.27
2019-02-19T17:01:44.625Z,3.05
2019-02-19T17:04:24.880Z,3.27
2019-02-19T17:07:03.792Z,2.72
2019-02-19T17:09:42.933Z,3.40
2019-02-19T17:12:20.880Z,3.30
2019-02-19T17:15:13.877Z,3.47
2019-02-19T17:18:10.815Z,3.45
2019-02-19T17:20:50.037Z,3.17
2019-02-19T17:23:25.819Z,3.60
2019-02-19T17:26:01.216Z,3.40
2019-02-19T17:28:54.412Z,3.40
2019-02-19T17:31:37.596Z,3.30
2019-02-19T17:34:30.577Z,3.70
2019-02-19T17:37:14.426Z,3.37
2019-02-19T17:39:59.375Z,3.37
2019-02-19T17:42:48.828Z,3.20
2019-02-19T17:45:29.658Z,3.45
2019-02-19T17:48:15.654Z,3.17
2019-02-19T17:50:58.137Z,3.20
2019-02-19T17:53:48.275Z,3.40
2019-02-19T17:56:35.220Z,7.65
2019-02-19T17:59:20.158Z,4.70
2019-02-19T18:02:05.850Z,40.15
2019-02-19T18:05:05.136Z,24.02
2019-02-19T18:08:00.909Z,14.07
2019-02-19T18:10:47.546Z,9.15
2019-02-19T18:13:34.249Z,6.75
2019-02-19T18:16:24.218Z,6.22
2019-02-19T18:18:52.404Z,4.50
2019-02-19T18:21:20.323Z,4.62
2019-02-19T18:23:48.205Z,4.62
2019-02-19T18:26:16.060Z,4.12
2019-02-19T18:28:43.970Z,4.65
2019-02-19T18:31:11.811Z,4.22
2019-02-19T18:33:39.732Z,4.45
2019-02-19T18:36:07.613Z,3.90
2019-02-19T18:38:35.466Z,3.42
2019-02-19T18:41:03.416Z,4.25
2019-02-19T18:43:31.253Z,4.42
2019-02-19T18:45:59.124Z,4.60
2019-02-19T18:48:27.072Z,4.15
2019-02-19T18:50:58.582Z,4.83
2019-02-19T18:53:24.560Z,7.45
2019-02-19T18:55:52.485Z,5.70
2019-02-19T18:58:20.353Z,4.78
2019-02-19T19:00:48.255Z,5.00
2019-02-19T19:03:16.151Z,5.47
2019-02-19T19:05:44.032Z,6.42
2019-02-19T19:08:11.879Z,5.85
2019-02-19T19:10:39.787Z,6.25
2019-02-19T19:13:08.017Z,6.67
2019-02-19T19:15:36.027Z,5.70
2019-02-19T19:18:03.996Z,6.28
2019-02-19T19:20:31.909Z,6.03
2019-02-19T19:22:59.868Z,5.53
2019-02-19T19:25:27.748Z,5.22
2019-02-19T19:27:55.730Z,5.72
2019-02-19T19:30:23.584Z,6.20
2019-02-19T19:32:51.531Z,8.75
2019-02-19T19:35:19.490Z,7.05
2019-02-19T19:37:47.316Z,7.08
2019-02-19T19:40:15.214Z,6.97
2019-02-19T19:42:43.085Z,8.13
2019-02-19T19:45:10.983Z,7.80
2019-02-19T19:47:38.867Z,8.28
2019-02-19T19:50:06.771Z,8.55
2019-02-19T19:52:34.669Z,7.87
2019-02-19T19:55:02.611Z,9.15
2019-02-19T19:57:30.520Z,8.58
2019-02-19T19:59:58.524Z,8.03
2019-02-19T20:02:26.392Z,7.17
2019-02-19T20:04:54.265Z,6.65
2019-02-19T20:07:22.139Z,7.53
2019-02-19T20:09:50.034Z,6.80
2019-02-19T20:12:17.931Z,7.75
2019-02-19T20:14:45.839Z,8.10
2019-02-19T20:17:13.690Z,8.03
2019-02-19T20:19:41.564Z,7.72
2019-02-19T20:22:09.462Z,8.50
2019-02-19T20:24:37.389Z,8.38
2019-02-19T20:27:05.357Z,7.40
2019-02-19T20:29:33.215Z,7.47
2019-02-19T20:32:01.075Z,6.80
2019-02-19T20:34:28.933Z,6.65
2019-02-19T20:36:56.792Z,6.67
2019-02-19T20:39:24.670Z,6.22
2019-02-19T20:41:52.528Z,5.42
2019-02-19T20:44:20.490Z,5.97
2019-02-19T20:46:48.381Z,6.55
2019-02-19T20:49:16.291Z,7.28
2019-02-19T20:51:44.159Z,5.08
2019-02-19T20:54:12.015Z,5.72
2019-02-19T20:56:40.032Z,7.20
2019-02-19T20:59:08.001Z,7.53
2019-02-19T21:01:35.955Z,8.38
2019-02-19T21:04:03.821Z,9.70
2019-02-19T21:06:31.688Z,8.35
2019-02-19T21:08:59.537Z,7.97
2019-02-19T21:11:27.737Z,8.18
2019-02-19T21:13:55.797Z,7.58
2019-02-19T21:16:23.755Z,7.30
2019-02-19T21:18:51.597Z,6.72
2019-02-19T21:21:19.586Z,6.20
2019-02-19T21:23:47.462Z,6.53
2019-02-19T21:26:15.357Z,6.30
2019-02-19T21:28:43.225Z,5.20
2019-02-19T21:31:11.090Z,5.28
2019-02-19T21:33:38.965Z,4.60
2019-02-19T21:36:06.863Z,6.10
2019-02-19T21:38:34.806Z,4.83
2019-02-19T21:41:02.673Z,5.25
2019-02-19T21:43:30.537Z,5.87
2019-02-19T21:45:58.423Z,5.90
2019-02-19T21:48:26.265Z,5.45
2019-02-19T21:50:54.143Z,5.55
2019-02-19T21:53:22.053Z,5.25
2019-02-19T21:55:50.077Z,6.00
2019-02-19T21:58:17.949Z,5.35
2019-02-19T22:00:45.813Z,6.30
2019-02-19T22:03:13.742Z,7.12
2019-02-19T22:05:41.613Z,6.58
2019-02-19T22:08:09.494Z,13.58
2019-02-19T22:10:37.385Z,13.68
2019-02-19T22:13:05.277Z,17.98
2019-02-19T22:15:33.117Z,13.48
2019-02-19T22:18:00.969Z,14.87
2019-02-19T22:20:49.557Z,11.93
2019-02-19T22:23:17.450Z,11.28
2019-02-19T22:25:45.348Z,9.70
2019-02-19T22:28:13.224Z,9.35
2019-02-19T22:30:41.039Z,9.45
2019-02-19T22:33:08.917Z,9.40
2019-02-19T22:35:36.827Z,10.32
2019-02-19T22:38:04.709Z,10.00
2019-02-19T22:40:32.573Z,9.55
2019-02-19T22:43:00.453Z,9.80
2019-02-19T22:45:28.360Z,10.28
2019-02-19T22:47:56.626Z,10.15
2019-02-19T22:50:24.494Z,9.18
2019-02-19T22:52:52.361Z,9.80
2019-02-19T22:55:29.180Z,9.03
2019-02-19T22:57:57.060Z,8.58
2019-02-19T23:00:42.776Z,9.95
2019-02-19T23:03:10.715Z,9.10
2019-02-19T23:05:38.559Z,8.28
2019-02-19T23:08:06.395Z,8.03
2019-02-19T23:10:34.331Z,7.72
2019-02-19T23:13:02.224Z,8.00
2019-02-19T23:15:30.084Z,7.47
2019-02-19T23:17:57.961Z,7.40
2019-02-19T23:20:25.812Z,7.65
2019-02-19T23:22:53.726Z,7.40
2019-02-19T23:25:21.661Z,6.87
2019-02-19T23:27:49.557Z,6.42
2019-02-19T23:30:17.410Z,7.20
2019-02-19T23:32:45.390Z,6.30
2019-02-19T23:35:19.955Z,7.12
2019-02-19T23:37:47.518Z,6.50
2019-02-19T23:40:15.455Z,6.70
2019-02-19T23:42:43.357Z,6.40
2019-02-19T23:45:11.313Z,6.03
2019-02-19T23:47:39.212Z,6.03
2019-02-19T23:50:07.088Z,6.08
2019-02-19T23:52:34.912Z,6.47
2019-02-19T23:55:02.798Z,6.40
2019-02-19T23:57:30.683Z,6.22
2019-02-19T23:59:58.540Z,6.08
